Time;durP1;ratioP1;P1;durP2;ratioP2;P2;SDS_P1;SDS_P2;PMS_P1;PMS_P2;Temp;Humidity;BMP_temperature;BMP_pressure;BME280_temperature;BME280_humidity;BME280_pressure;Samples;Min_cycle;Max_cycle;Signal;HPM_P1;HPM_P2
2021/05/26 00:00:35;;;;;;;21.45;10.75;;;9.20;99.90;;;;;;5029185;28;20026;-63
2021/05/26 00:03:01;;;;;;;24.40;10.38;;;9.20;99.90;;;;;;5030700;28;20044;-63
2021/05/26 00:05:29;;;;;;;22.38;9.75;;;9.20;99.90;;;;;;5030268;28;20029;-63
2021/05/26 00:07:55;;;;;;;14.73;9.25;;;9.20;99.90;;;;;;5030284;28;20059;-63
2021/05/26 00:10:21;;;;;;;19.80;11.40;;;9.20;99.90;;;;;;5029323;28;20118;-62
2021/05/26 00:12:46;;;;;;;18.77;9.90;;;9.20;99.90;;;;;;5029492;28;20554;-64
2021/05/26 00:15:12;;;;;;;24.13;10.18;;;9.20;99.90;;;;;;5029828;28;20029;-63
2021/05/26 00:17:38;;;;;;;15.23;8.80;;;9.20;99.90;;;;;;5027834;28;20064;-64
2021/05/26 00:20:05;;;;;;;21.60;9.70;;;9.20;99.90;;;;;;5030095;28;20053;-63
2021/05/26 00:22:30;;;;;;;20.08;8.15;;;9.20;99.90;;;;;;5029754;28;20165;-62
2021/05/26 00:24:56;;;;;;;29.30;9.65;;;9.20;99.90;;;;;;5030522;28;20040;-62
2021/05/26 00:27:22;;;;;;;23.75;9.55;;;9.30;99.90;;;;;;5030827;28;20032;-62
2021/05/26 00:29:48;;;;;;;17.35;8.73;;;9.20;99.90;;;;;;5028994;28;20044;-62
2021/05/26 00:32:14;;;;;;;16.98;9.02;;;9.30;99.90;;;;;;5029582;28;20029;-63
2021/05/26 00:34:39;;;;;;;18.13;8.93;;;9.30;99.90;;;;;;5030670;28;20041;-63
2021/05/26 00:37:05;;;;;;;15.57;8.15;;;9.30;99.90;;;;;;5029601;28;20026;-63
2021/05/26 00:39:31;;;;;;;16.67;7.18;;;9.30;99.90;;;;;;5029441;28;20032;-62
2021/05/26 00:41:57;;;;;;;18.23;7.90;;;9.30;99.90;;;;;;5031721;28;20095;-63
2021/05/26 00:44:23;;;;;;;15.98;7.70;;;9.30;99.90;;;;;;5030147;28;20124;-62
2021/05/26 00:46:49;;;;;;;14.10;6.88;;;9.40;99.90;;;;;;5030395;28;20033;-62
2021/05/26 00:49:15;;;;;;;17.35;7.97;;;9.40;99.90;;;;;;5030865;28;20051;-63
2021/05/26 00:51:41;;;;;;;20.30;7.85;;;9.40;99.90;;;;;;5028918;28;20060;-64
2021/05/26 00:54:07;;;;;;;20.67;7.40;;;9.40;99.90;;;;;;5029215;28;20107;-63
2021/05/26 00:56:33;;;;;;;15.43;5.95;;;9.30;99.90;;;;;;5029695;28;20033;-61
2021/05/26 00:59:04;;;;;;;9.20;5.32;;;9.30;99.90;;;;;;5030706;28;20033;-62
2021/05/26 01:01:29;;;;;;;15.85;5.95;;;9.30;99.90;;;;;;5023947;28;20380;-63
2021/05/26 01:03:56;;;;;;;18.77;5.93;;;9.30;99.90;;;;;;5033442;28;20029;-62
2021/05/26 01:06:22;;;;;;;18.88;6.55;;;9.30;99.90;;;;;;5027451;28;20065;-65
2021/05/26 01:08:47;;;;;;;18.25;6.18;;;9.30;99.90;;;;;;5030905;28;20505;-62
2021/05/26 01:11:13;;;;;;;9.40;6.18;;;9.30;99.90;;;;;;5031195;28;20029;-64
2021/05/26 01:13:38;;;;;;;18.85;5.82;;;9.30;99.90;;;;;;5030647;28;20491;-66
2021/05/26 01:16:04;;;;;;;13.75;5.45;;;9.40;99.90;;;;;;5026925;28;20029;-65
2021/05/26 01:18:32;;;;;;;13.40;4.75;;;9.40;99.90;;;;;;5026374;28;20071;-63
2021/05/26 01:21:00;;;;;;;14.88;5.70;;;9.40;99.90;;;;;;5030487;28;20018;-64
2021/05/26 01:23:27;;;;;;;19.02;5.15;;;9.40;99.90;;;;;;5030555;28;20017;-63
2021/05/26 01:25:55;;;;;;;17.73;5.85;;;9.40;99.90;;;;;;5029747;28;20116;-63
2021/05/26 01:28:21;;;;;;;13.20;5.47;;;9.40;99.90;;;;;;5030184;28;20515;-64
2021/05/26 01:30:48;;;;;;;12.45;5.00;;;9.50;99.90;;;;;;5030255;28;20061;-64
2021/05/26 01:33:14;;;;;;;11.82;4.85;;;9.40;99.90;;;;;;5030619;28;20099;-64
2021/05/26 01:35:41;;;;;;;12.60;5.18;;;9.40;99.90;;;;;;5028079;28;20037;-62
2021/05/26 01:38:10;;;;;;;13.27;5.65;;;9.40;99.90;;;;;;5029277;28;20028;-62
2021/05/26 01:40:36;;;;;;;11.20;4.63;;;9.40;99.90;;;;;;5028385;28;20476;-65
2021/05/26 01:43:02;;;;;;;10.57;4.65;;;9.50;99.90;;;;;;5028301;28;20039;-63
2021/05/26 01:45:27;;;;;;;17.25;5.60;;;9.40;99.90;;;;;;5028311;28;20033;-64
2021/05/26 01:47:53;;;;;;;11.43;5.50;;;9.50;99.90;;;;;;5028147;28;20071;-64
2021/05/26 01:50:21;;;;;;;20.13;6.07;;;9.50;99.90;;;;;;5024824;28;20030;-63
2021/05/26 01:53:07;;;;;;;24.73;5.25;;;9.50;99.90;;;;;;5027451;28;20025;-64
2021/05/26 01:55:35;;;;;;;20.42;6.13;;;9.50;99.90;;;;;;5025755;28;20045;-65
2021/05/26 01:58:02;;;;;;;15.27;5.82;;;9.50;99.90;;;;;;5027582;28;20454;-64
2021/05/26 02:00:28;;;;;;;18.10;5.80;;;9.40;99.90;;;;;;5028686;28;20108;-64
2021/05/26 02:02:53;;;;;;;21.25;6.72;;;9.40;99.90;;;;;;5029133;28;20096;-66
2021/05/26 02:05:20;;;;;;;17.58;6.43;;;9.40;99.90;;;;;;5029306;28;20044;-65
2021/05/26 02:07:47;;;;;;;14.88;5.72;;;9.40;99.90;;;;;;5028510;28;20036;-64
2021/05/26 02:10:15;;;;;;;16.17;5.25;;;9.40;99.90;;;;;;5029427;28;20032;-64
2021/05/26 02:12:42;;;;;;;22.00;6.45;;;9.40;99.90;;;;;;5030923;28;20025;-65
2021/05/26 02:15:10;;;;;;;20.67;5.88;;;9.40;99.90;;;;;;5033426;28;20677;-64
2021/05/26 02:17:36;;;;;;;19.02;6.43;;;9.40;99.90;;;;;;5033328;28;20105;-62
2021/05/26 02:20:02;;;;;;;17.92;5.93;;;9.40;99.90;;;;;;5034258;28;20501;-64
2021/05/26 02:22:28;;;;;;;17.75;6.78;;;9.40;99.90;;;;;;5033738;28;20137;-64
2021/05/26 02:24:53;;;;;;;21.95;5.40;;;9.40;99.90;;;;;;5033959;28;20104;-62
2021/05/26 02:27:19;;;;;;;14.77;6.45;;;9.40;99.90;;;;;;5033603;28;20482;-63
2021/05/26 02:29:44;;;;;;;22.88;8.10;;;9.40;99.90;;;;;;5032768;28;20383;-63
2021/05/26 02:32:10;;;;;;;22.02;6.57;;;9.40;99.90;;;;;;5032712;28;20037;-63
2021/05/26 02:34:37;;;;;;;28.15;7.28;;;9.40;99.90;;;;;;5032299;28;20182;-63
2021/05/26 02:37:03;;;;;;;10.70;5.90;;;9.30;99.90;;;;;;5033492;28;20112;-62
2021/05/26 02:39:29;;;;;;;13.80;5.55;;;9.40;99.90;;;;;;5033768;28;20403;-63
2021/05/26 02:41:55;;;;;;;21.98;5.82;;;9.40;99.90;;;;;;5033544;28;20040;-62
2021/05/26 02:44:20;;;;;;;24.45;7.35;;;9.40;99.90;;;;;;5031995;28;20083;-63
2021/05/26 02:46:47;;;;;;;13.13;4.75;;;9.40;99.90;;;;;;5033042;28;20021;-65
2021/05/26 02:49:12;;;;;;;11.45;5.28;;;9.40;99.90;;;;;;5032272;28;20104;-63
2021/05/26 02:51:38;;;;;;;16.48;4.85;;;9.40;99.90;;;;;;5031767;28;20120;-65
2021/05/26 02:54:05;;;;;;;16.63;5.43;;;9.30;99.90;;;;;;5032888;28;20022;-63
2021/05/26 02:56:31;;;;;;;13.18;4.22;;;9.30;99.90;;;;;;5031720;28;20458;-63
2021/05/26 02:58:57;;;;;;;19.48;4.93;;;9.30;99.90;;;;;;5031736;28;20108;-63
2021/05/26 03:01:23;;;;;;;14.57;5.25;;;9.30;99.90;;;;;;5031506;28;20092;-62
2021/05/26 03:03:49;;;;;;;14.90;5.47;;;9.30;99.90;;;;;;5033866;28;20033;-63
2021/05/26 03:06:14;;;;;;;15.35;5.35;;;9.40;99.90;;;;;;5032869;28;20033;-61
2021/05/26 03:08:40;;;;;;;15.13;4.95;;;9.30;99.90;;;;;;5031524;28;20398;-61
2021/05/26 03:11:06;;;;;;;8.45;4.90;;;9.30;99.90;;;;;;5035975;28;20056;-62
2021/05/26 03:13:32;;;;;;;14.38;5.38;;;9.40;99.90;;;;;;5040746;28;20041;-63
2021/05/26 03:15:58;;;;;;;17.20;4.80;;;9.40;99.90;;;;;;5035319;28;20025;-62
2021/05/26 03:18:24;;;;;;;11.80;4.55;;;9.30;99.90;;;;;;5032352;28;20199;-64
2021/05/26 03:20:50;;;;;;;14.80;4.30;;;9.40;99.90;;;;;;5032539;28;20109;-62
2021/05/26 03:23:20;;;;;;;15.15;5.18;;;9.30;99.90;;;;;;5031539;28;20533;-62
2021/05/26 03:25:47;;;;;;;9.98;4.85;;;9.40;99.90;;;;;;5031479;28;20040;-63
2021/05/26 03:28:16;;;;;;;14.38;4.80;;;9.30;99.90;;;;;;5031599;28;20067;-63
2021/05/26 03:30:43;;;;;;;12.85;4.72;;;9.30;99.90;;;;;;5031976;28;20395;-62
2021/05/26 03:33:12;;;;;;;14.35;5.75;;;9.30;99.90;;;;;;5032537;28;20364;-62
2021/05/26 03:35:39;;;;;;;22.83;5.45;;;9.30;99.90;;;;;;5032762;28;20033;-61
2021/05/26 03:38:06;;;;;;;10.98;4.70;;;9.30;99.90;;;;;;5032230;28;20079;-63
2021/05/26 03:40:32;;;;;;;13.35;4.95;;;9.30;99.90;;;;;;5032320;28;20037;-62
2021/05/26 03:42:58;;;;;;;16.90;5.30;;;9.30;99.90;;;;;;5031161;28;20025;-62
2021/05/26 03:45:24;;;;;;;13.20;5.07;;;9.40;99.90;;;;;;5030917;28;20183;-61
2021/05/26 03:47:49;;;;;;;13.30;5.53;;;9.40;99.90;;;;;;5032095;28;20100;-65
2021/05/26 03:50:15;;;;;;;14.38;5.30;;;9.30;99.90;;;;;;5027407;28;20034;-60
2021/05/26 03:52:45;;;;;;;13.15;4.75;;;9.30;99.90;;;;;;5031738;28;20033;-64
2021/05/26 03:55:13;;;;;;;11.05;4.47;;;9.30;99.90;;;;;;5031369;28;20034;-63
2021/05/26 03:57:39;;;;;;;10.40;4.70;;;9.40;99.90;;;;;;5031747;28;20096;-63
2021/05/26 04:00:10;;;;;;;8.95;3.97;;;9.30;99.90;;;;;;5030610;28;20618;-64
2021/05/26 04:02:36;;;;;;;15.20;4.60;;;9.30;99.90;;;;;;5029693;28;20487;-64
2021/05/26 04:05:02;;;;;;;10.40;3.95;;;9.40;99.90;;;;;;5032068;28;20040;-65
2021/05/26 04:07:28;;;;;;;13.65;4.30;;;9.40;99.90;;;;;;5031294;28;20091;-65
2021/05/26 04:09:53;;;;;;;14.93;4.88;;;9.40;99.90;;;;;;5026223;28;20034;-64
2021/05/26 04:12:19;;;;;;;13.93;5.38;;;9.40;99.90;;;;;;5031442;28;20034;-63
2021/05/26 04:14:45;;;;;;;12.45;4.30;;;9.40;99.90;;;;;;5030812;28;20030;-66
2021/05/26 04:17:10;;;;;;;12.93;5.35;;;9.40;99.90;;;;;;5031693;28;20394;-66
2021/05/26 04:19:36;;;;;;;10.40;5.75;;;9.40;99.90;;;;;;5032156;28;20493;-65
2021/05/26 04:22:01;;;;;;;16.88;6.65;;;9.40;99.90;;;;;;5031134;28;20040;-65
2021/05/26 04:24:27;;;;;;;10.60;5.35;;;9.40;99.90;;;;;;5031209;28;20041;-64
2021/05/26 04:26:52;;;;;;;12.73;5.93;;;9.40;99.90;;;;;;5029974;28;20061;-67
2021/05/26 04:29:19;;;;;;;11.95;5.88;;;9.40;99.90;;;;;;5031602;28;20036;-64
2021/05/26 04:31:46;;;;;;;14.07;6.10;;;9.40;99.90;;;;;;5027518;28;20149;-63
2021/05/26 04:34:12;;;;;;;15.68;6.20;;;9.40;99.90;;;;;;5030514;28;20038;-65
2021/05/26 04:36:37;;;;;;;12.07;6.78;;;9.50;99.90;;;;;;5030691;28;20029;-63
2021/05/26 04:39:03;;;;;;;12.13;6.30;;;9.50;99.90;;;;;;5031502;28;20104;-63
2021/05/26 04:41:29;;;;;;;11.48;5.97;;;9.50;99.90;;;;;;5029365;28;20048;-63
2021/05/26 04:43:54;;;;;;;10.10;5.43;;;9.50;99.90;;;;;;5030533;28;20459;-64
2021/05/26 04:46:20;;;;;;;14.18;6.05;;;9.50;99.90;;;;;;5030381;28;20026;-65
2021/05/26 04:48:45;;;;;;;13.10;5.85;;;9.50;99.90;;;;;;5031201;28;20036;-62
2021/05/26 04:51:11;;;;;;;14.88;6.65;;;9.60;99.90;;;;;;5030896;28;20411;-62
2021/05/26 04:53:36;;;;;;;16.23;7.25;;;9.70;99.90;;;;;;5031123;28;20090;-63
2021/05/26 04:56:02;;;;;;;16.95;6.63;;;9.70;99.90;;;;;;5030460;28;21253;-63
2021/05/26 04:58:27;;;;;;;15.52;7.93;;;9.80;99.90;;;;;;5030527;28;20186;-64
2021/05/26 05:00:53;;;;;;;14.50;7.60;;;9.80;99.90;;;;;;5029512;28;20026;-62
2021/05/26 05:03:18;;;;;;;16.88;7.80;;;9.90;99.90;;;;;;5030387;28;20041;-62
2021/05/26 05:05:44;;;;;;;16.73;9.95;;;9.90;99.90;;;;;;5029908;28;20499;-63
2021/05/26 05:08:10;;;;;;;21.58;8.60;;;9.80;99.90;;;;;;5030438;28;20040;-63
2021/05/26 05:10:36;;;;;;;21.20;8.23;;;9.80;99.90;;;;;;5028106;28;20104;-64
2021/05/26 05:13:02;;;;;;;13.75;7.70;;;9.80;99.90;;;;;;5030776;28;20030;-63
2021/05/26 05:15:28;;;;;;;13.55;7.95;;;9.80;99.90;;;;;;5028113;28;20038;-65
2021/05/26 05:17:54;;;;;;;15.75;8.55;;;9.80;99.90;;;;;;5028837;28;20025;-65
2021/05/26 05:20:21;;;;;;;21.88;8.82;;;9.80;99.90;;;;;;5030520;28;20032;-63
2021/05/26 05:22:48;;;;;;;15.35;7.65;;;9.90;99.90;;;;;;5028293;28;20109;-65
2021/05/26 05:25:14;;;;;;;17.17;8.77;;;9.90;99.90;;;;;;5028322;28;20042;-64
2021/05/26 05:27:40;;;;;;;16.15;7.40;;;9.90;99.90;;;;;;5029804;28;20056;-63
2021/05/26 05:30:07;;;;;;;12.38;6.90;;;9.90;99.90;;;;;;5029495;28;20483;-65
2021/05/26 05:32:33;;;;;;;13.95;6.50;;;9.90;99.90;;;;;;5030529;28;20334;-63
2021/05/26 05:34:58;;;;;;;14.00;6.63;;;10.00;99.90;;;;;;5028776;28;20033;-63
2021/05/26 05:37:24;;;;;;;11.23;6.43;;;10.00;99.90;;;;;;5029875;28;20025;-64
2021/05/26 05:39:50;;;;;;;11.43;6.22;;;10.10;99.90;;;;;;5024904;28;20463;-62
2021/05/26 05:42:16;;;;;;;10.25;5.68;;;10.10;99.90;;;;;;5033096;22;20455;-61
2021/05/26 05:44:41;;;;;;;9.25;5.55;;;10.20;99.90;;;;;;5008840;28;20118;-60
2021/05/26 05:47:07;;;;;;;8.80;4.40;;;10.30;99.90;;;;;;4991131;28;20087;-61
2021/05/26 05:49:32;;;;;;;10.80;5.10;;;10.40;99.90;;;;;;5009508;28;20075;-60
2021/05/26 05:51:58;;;;;;;5.75;3.35;;;10.40;99.90;;;;;;5009259;28;20072;-59
2021/05/26 05:54:23;;;;;;;5.82;3.08;;;10.50;99.90;;;;;;5008312;28;20033;-61
2021/05/26 05:56:49;;;;;;;5.18;2.97;;;10.50;99.90;;;;;;5008638;28;20110;-59
2021/05/26 05:59:14;;;;;;;8.38;3.20;;;10.40;99.90;;;;;;5008413;28;20546;-59
2021/05/26 06:01:40;;;;;;;7.43;3.30;;;10.50;99.90;;;;;;5009346;28;20614;-60
2021/05/26 06:04:05;;;;;;;7.15;2.67;;;10.60;99.90;;;;;;5008753;28;20034;-60
2021/05/26 06:06:31;;;;;;;4.38;2.35;;;10.60;99.90;;;;;;5008872;28;20073;-58
2021/05/26 06:08:57;;;;;;;4.82;2.53;;;10.60;99.90;;;;;;5009339;28;20369;-60
2021/05/26 06:11:22;;;;;;;4.18;2.40;;;10.70;99.90;;;;;;5008951;28;20088;-60
2021/05/26 06:13:49;;;;;;;4.10;2.25;;;10.80;99.90;;;;;;5008855;28;20026;-62
2021/05/26 06:16:16;;;;;;;4.82;2.10;;;10.80;99.90;;;;;;5008136;28;20026;-61
2021/05/26 06:18:41;;;;;;;4.38;2.10;;;10.80;99.90;;;;;;5009005;28;20030;-61
2021/05/26 06:21:07;;;;;;;2.85;1.88;;;10.80;99.90;;;;;;5008861;28;20818;-61
2021/05/26 06:23:34;;;;;;;7.97;2.10;;;10.90;99.90;;;;;;5008670;28;20042;-62
2021/05/26 06:26:00;;;;;;;5.68;1.75;;;10.80;99.90;;;;;;5007990;28;20036;-61
2021/05/26 06:28:25;;;;;;;5.28;1.88;;;10.80;99.90;;;;;;5008011;28;20022;-61
2021/05/26 06:30:52;;;;;;;2.67;1.38;;;10.80;99.90;;;;;;5007755;28;20096;-61
2021/05/26 06:33:17;;;;;;;3.83;1.70;;;10.80;99.90;;;;;;5008870;28;20107;-61
2021/05/26 06:35:43;;;;;;;2.05;1.50;;;10.80;99.90;;;;;;5008631;28;20025;-61
2021/05/26 06:38:09;;;;;;;10.10;2.22;;;10.80;99.90;;;;;;5008324;28;20030;-61
2021/05/26 06:40:34;;;;;;;4.57;2.03;;;10.70;99.90;;;;;;5008634;28;20026;-60
2021/05/26 06:43:00;;;;;;;7.78;2.60;;;10.80;99.90;;;;;;5007839;28;20124;-60
2021/05/26 06:45:25;;;;;;;8.15;2.47;;;10.70;99.90;;;;;;5008307;28;20030;-60
2021/05/26 06:47:51;;;;;;;3.88;2.45;;;10.60;99.90;;;;;;5008546;28;20105;-61
2021/05/26 06:50:16;;;;;;;6.28;3.17;;;10.60;99.90;;;;;;5008570;28;20034;-61
2021/05/26 06:52:42;;;;;;;6.53;2.45;;;10.50;99.90;;;;;;5008361;28;20121;-63
2021/05/26 06:55:08;;;;;;;3.92;2.78;;;10.50;99.90;;;;;;5008347;28;20033;-61
2021/05/26 06:57:34;;;;;;;7.47;2.13;;;10.50;99.90;;;;;;5008032;28;20503;-60
2021/05/26 06:59:59;;;;;;;5.40;1.90;;;10.50;99.90;;;;;;5012645;28;20079;-60
2021/05/26 07:02:25;;;;;;;5.63;2.20;;;10.50;99.90;;;;;;5012184;28;20026;-60
2021/05/26 07:04:50;;;;;;;7.47;3.05;;;10.70;99.90;;;;;;5010989;28;20117;-59
2021/05/26 07:07:16;;;;;;;4.07;1.98;;;10.70;99.90;;;;;;5012201;28;20034;-60
2021/05/26 07:09:42;;;;;;;5.72;2.05;;;10.80;99.90;;;;;;5011747;28;20037;-57
2021/05/26 07:12:07;;;;;;;5.22;2.25;;;10.90;99.90;;;;;;5012049;28;20494;-60
2021/05/26 07:14:33;;;;;;;9.63;2.83;;;11.00;99.90;;;;;;5011079;28;20041;-59
2021/05/26 07:16:58;;;;;;;5.25;3.33;;;11.00;99.90;;;;;;5011596;28;20030;-59
2021/05/26 07:19:24;;;;;;;6.07;3.53;;;11.00;99.90;;;;;;5011848;28;20092;-59
2021/05/26 07:21:49;;;;;;;9.65;5.38;;;11.00;99.90;;;;;;5012647;28;20030;-61
2021/05/26 07:24:15;;;;;;;8.65;3.75;;;11.00;99.90;;;;;;5013797;28;20037;-60
2021/05/26 07:26:41;;;;;;;6.50;4.35;;;11.10;99.90;;;;;;5013871;28;20057;-57
2021/05/26 07:29:06;;;;;;;11.18;3.70;;;11.10;99.90;;;;;;5010367;28;20022;-60
2021/05/26 07:31:32;;;;;;;6.38;3.58;;;11.10;99.90;;;;;;5011114;28;20399;-58
2021/05/26 07:33:58;;;;;;;7.78;3.28;;;11.20;99.90;;;;;;5011201;28;20041;-57
2021/05/26 07:36:24;;;;;;;5.50;2.38;;;11.30;99.90;;;;;;5007827;28;20114;-58
2021/05/26 07:38:50;;;;;;;5.70;2.88;;;11.20;99.90;;;;;;5010266;28;20096;-60
2021/05/26 07:41:15;;;;;;;4.57;2.42;;;11.30;99.90;;;;;;5009585;28;20478;-59
2021/05/26 07:43:41;;;;;;;5.68;2.47;;;11.30;99.90;;;;;;5008892;28;20109;-59
2021/05/26 07:46:07;;;;;;;5.85;2.55;;;11.30;99.90;;;;;;5008477;28;20125;-60
2021/05/26 07:48:34;;;;;;;4.50;1.63;;;11.30;99.90;;;;;;5010450;28;20077;-60
2021/05/26 07:51:02;;;;;;;3.20;1.20;;;11.30;99.90;;;;;;5009810;28;20033;-55
2021/05/26 07:53:27;;;;;;;5.63;2.75;;;11.40;99.90;;;;;;5008751;28;20030;-54
2021/05/26 07:55:53;;;;;;;8.02;2.95;;;11.50;99.90;;;;;;5007837;28;20569;-54
2021/05/26 07:58:19;;;;;;;8.05;2.38;;;11.50;99.90;;;;;;4993422;28;20018;-55
2021/05/26 08:00:44;;;;;;;3.75;1.83;;;11.50;99.90;;;;;;5009723;28;20399;-55
2021/05/26 08:03:10;;;;;;;1.75;1.30;;;11.60;99.90;;;;;;5008632;28;20061;-57
2021/05/26 08:05:35;;;;;;;3.40;1.40;;;11.70;99.90;;;;;;5008480;28;20617;-56
2021/05/26 08:08:01;;;;;;;5.15;1.50;;;11.70;99.90;;;;;;5004549;28;20033;-53
2021/05/26 08:10:26;;;;;;;4.05;1.35;;;11.80;99.90;;;;;;5010138;28;20044;-54
2021/05/26 08:12:52;;;;;;;1.80;1.33;;;11.80;99.90;;;;;;4996370;28;20029;-56
2021/05/26 08:15:18;;;;;;;4.40;1.60;;;11.90;99.90;;;;;;5009436;28;20176;-54
2021/05/26 08:17:44;;;;;;;4.88;0.93;;;11.70;99.90;;;;;;5011077;28;20068;-56
2021/05/26 08:20:10;;;;;;;3.20;1.20;;;11.50;99.90;;;;;;5012216;28;20058;-57
2021/05/26 08:22:36;;;;;;;2.42;1.25;;;11.50;99.90;;;;;;5009574;28;20112;-56
2021/05/26 08:25:03;;;;;;;8.95;3.45;;;11.40;99.90;;;;;;5009536;28;20104;-53
2021/05/26 08:27:29;;;;;;;5.15;2.13;;;11.50;99.90;;;;;;5010856;28;20038;-54
2021/05/26 08:29:55;;;;;;;4.18;1.95;;;11.50;99.90;;;;;;5011149;28;20030;-53
2021/05/26 08:32:22;;;;;;;4.80;2.05;;;11.60;99.90;;;;;;5010302;28;20200;-54
2021/05/26 08:34:49;;;;;;;9.25;2.65;;;11.70;99.90;;;;;;5009114;28;20114;-53
2021/05/26 08:37:16;;;;;;;2.83;1.58;;;11.70;99.90;;;;;;5006674;28;20491;-56
2021/05/26 08:39:41;;;;;;;1.17;0.80;;;11.80;99.90;;;;;;5007836;28;20049;-54
2021/05/26 08:42:08;;;;;;;1.83;1.10;;;11.80;99.90;;;;;;5002939;28;20469;-58
2021/05/26 08:44:33;;;;;;;3.13;0.77;;;11.90;99.90;;;;;;5007714;28;20041;-56
2021/05/26 08:47:02;;;;;;;2.05;0.80;;;11.90;99.90;;;;;;5009674;28;20038;-56
2021/05/26 08:49:30;;;;;;;3.00;0.77;;;11.90;99.90;;;;;;5010318;28;20037;-55
2021/05/26 08:51:59;;;;;;;1.60;0.70;;;12.00;99.90;;;;;;5005013;28;20089;-55
2021/05/26 08:54:25;;;;;;;4.80;1.02;;;12.10;99.90;;;;;;5010738;28;20053;-57
2021/05/26 08:56:51;;;;;;;3.40;1.08;;;12.20;99.90;;;;;;5011943;28;20053;-52
2021/05/26 08:59:16;;;;;;;2.70;0.70;;;12.30;99.90;;;;;;5004228;28;20353;-57
2021/05/26 09:01:48;;;;;;;1.25;0.73;;;12.30;99.90;;;;;;5009708;28;20442;-55
2021/05/26 09:04:33;;;;;;;2.42;0.47;;;12.00;99.90;;;;;;5005498;28;20133;-56
2021/05/26 09:07:09;;;;;;;3.70;0.60;;;12.20;99.90;;;;;;5008994;28;20516;-56
2021/05/26 09:09:53;;;;;;;1.48;0.63;;;12.30;99.90;;;;;;5009473;28;20033;-54
2021/05/26 09:12:34;;;;;;;2.83;0.70;;;12.50;99.90;;;;;;5008120;28;20022;-56
2021/05/26 09:15:13;;;;;;;2.05;0.60;;;12.60;99.90;;;;;;5010171;28;20025;-56
2021/05/26 09:17:39;;;;;;;2.20;0.82;;;12.90;99.90;;;;;;5010031;28;20431;-56
2021/05/26 09:20:15;;;;;;;3.58;1.27;;;13.10;99.90;;;;;;5004742;28;20461;-55
2021/05/26 09:23:04;;;;;;;4.35;1.52;;;13.10;99.90;;;;;;5007542;28;20033;-54
2021/05/26 09:25:32;;;;;;;4.20;1.48;;;13.10;99.90;;;;;;5010732;28;20033;-52
2021/05/26 09:28:24;;;;;;;2.35;1.52;;;13.10;99.90;;;;;;5010997;28;20037;-54
2021/05/26 09:30:51;;;;;;;4.97;2.10;;;13.00;99.90;;;;;;5010108;28;20049;-56
2021/05/26 09:33:27;;;;;;;3.67;1.73;;;13.00;99.90;;;;;;4990578;28;20052;-58
2021/05/26 09:36:09;;;;;;;6.07;1.60;;;12.90;99.90;;;;;;5010542;28;20030;-58
2021/05/26 09:38:48;;;;;;;3.53;1.52;;;12.90;99.90;;;;;;5009482;28;20088;-58
2021/05/26 09:41:20;;;;;;;4.50;1.70;;;12.80;99.90;;;;;;5008674;28;20344;-58
2021/05/26 09:43:49;;;;;;;6.13;1.80;;;12.80;99.90;;;;;;5008960;28;20030;-56
2021/05/26 09:46:30;;;;;;;4.40;1.52;;;12.70;99.90;;;;;;5008580;28;20022;-53
2021/05/26 09:49:30;;;;;;;3.70;1.67;;;12.40;99.90;;;;;;5008115;28;20021;-54
2021/05/26 09:51:56;;;;;;;2.72;1.50;;;12.50;99.90;;;;;;5004028;28;20072;-53
2021/05/26 09:54:29;;;;;;;6.80;1.30;;;12.50;99.90;;;;;;5009300;28;20034;-56
2021/05/26 09:57:07;;;;;;;2.85;0.88;;;12.50;99.90;;;;;;5009366;28;20033;-56
2021/05/26 09:59:35;;;;;;;3.95;1.65;;;12.50;99.90;;;;;;5003911;28;20104;-53
2021/05/26 10:02:06;;;;;;;4.65;1.65;;;12.50;99.90;;;;;;5006172;28;20538;-56
2021/05/26 10:04:31;;;;;;;3.50;1.30;;;12.50;99.90;;;;;;5003935;28;20034;-55
2021/05/26 10:07:03;;;;;;;4.85;1.70;;;12.30;99.90;;;;;;5009592;28;20590;-56
2021/05/26 10:09:33;;;;;;;4.80;1.88;;;12.20;99.90;;;;;;5004139;28;20527;-54
2021/05/26 10:12:00;;;;;;;3.85;2.08;;;12.20;99.90;;;;;;5001526;28;20089;-60
2021/05/26 10:14:28;;;;;;;9.00;2.40;;;12.10;99.90;;;;;;5004591;28;20033;-57
2021/05/26 10:16:55;;;;;;;5.63;2.35;;;12.10;99.90;;;;;;5007775;28;20443;-57
2021/05/26 10:19:22;;;;;;;6.00;2.25;;;11.90;99.90;;;;;;5004374;28;20026;-58
2021/05/26 10:21:48;;;;;;;4.18;2.05;;;12.00;99.90;;;;;;5003765;28;20099;-58
2021/05/26 10:24:22;;;;;;;5.03;2.28;;;12.20;99.90;;;;;;5007534;28;20164;-57
2021/05/26 10:26:47;;;;;;;6.75;2.60;;;12.00;99.90;;;;;;5008374;28;20044;-58
2021/05/26 10:29:28;;;;;;;5.47;1.48;;;12.20;99.90;;;;;;5009704;28;20391;-58
2021/05/26 10:31:55;;;;;;;3.60;1.70;;;12.30;99.90;;;;;;5007148;28;20037;-54
2021/05/26 10:34:21;;;;;;;4.25;1.98;;;12.30;99.90;;;;;;5008491;28;20177;-55
2021/05/26 10:37:03;;;;;;;4.35;1.65;;;12.30;99.90;;;;;;5009065;28;20597;-57
2021/05/26 10:39:29;;;;;;;7.97;2.97;;;12.30;99.90;;;;;;5002577;28;20033;-57
2021/05/26 10:41:55;;;;;;;3.38;2.13;;;12.20;99.90;;;;;;5010677;28;20026;-57
2021/05/26 10:44:21;;;;;;;4.28;2.53;;;12.20;99.90;;;;;;5012380;28;20368;-59
2021/05/26 10:46:49;;;;;;;3.60;1.10;;;12.20;99.90;;;;;;5011990;28;20033;-57
2021/05/26 10:49:15;;;;;;;2.80;2.15;;;12.10;99.90;;;;;;5013816;28;20041;-57
2021/05/26 10:51:57;;;;;;;1.98;1.33;;;12.10;99.90;;;;;;5013287;28;20033;-58
2021/05/26 10:54:41;;;;;;;2.65;1.23;;;12.20;99.90;;;;;;5008626;28;20364;-55
2021/05/26 10:57:08;;;;;;;5.53;2.22;;;12.20;99.90;;;;;;5015982;28;20449;-57
2021/05/26 10:59:34;;;;;;;4.00;1.98;;;12.10;99.90;;;;;;5015519;28;20286;-57
2021/05/26 11:02:02;;;;;;;9.45;1.20;;;12.10;99.90;;;;;;5012057;28;20030;-53
2021/05/26 11:04:29;;;;;;;4.93;1.80;;;12.20;99.90;;;;;;5011338;28;20041;-55
2021/05/26 11:07:18;;;;;;;6.32;2.38;;;12.30;99.90;;;;;;5012187;28;20080;-57
2021/05/26 11:09:54;;;;;;;7.60;2.63;;;12.20;99.90;;;;;;5012328;28;20110;-56
2021/05/26 11:12:20;;;;;;;6.95;2.30;;;12.20;99.90;;;;;;5009729;28;20507;-57
2021/05/26 11:14:48;;;;;;;8.57;3.17;;;12.20;99.90;;;;;;5010890;28;20118;-57
2021/05/26 11:17:15;;;;;;;5.25;3.25;;;12.20;99.90;;;;;;5009752;28;20026;-56
2021/05/26 11:19:41;;;;;;;7.40;2.60;;;12.20;99.90;;;;;;5012255;28;20029;-56
2021/05/26 11:22:14;;;;;;;5.22;3.00;;;12.20;99.90;;;;;;5011421;28;20030;-57
2021/05/26 11:24:43;;;;;;;6.45;3.03;;;12.30;99.90;;;;;;5013023;28;20074;-58
2021/05/26 11:27:17;;;;;;;7.15;3.75;;;12.10;99.90;;;;;;5011660;28;20500;-55
2021/05/26 11:29:44;;;;;;;9.93;3.58;;;12.20;99.90;;;;;;5008028;28;20072;-56
2021/05/26 11:32:15;;;;;;;9.23;3.60;;;12.20;99.90;;;;;;4992101;28;20030;-56
2021/05/26 11:34:42;;;;;;;5.53;3.53;;;12.20;99.90;;;;;;5009826;28;20034;-55
2021/05/26 11:37:09;;;;;;;9.43;2.70;;;12.20;99.90;;;;;;5006153;28;20050;-55
2021/05/26 11:39:36;;;;;;;3.03;2.05;;;12.20;99.90;;;;;;5009586;28;20454;-57
2021/05/26 11:42:14;;;;;;;4.13;2.33;;;12.10;99.90;;;;;;5038694;23;20045;-61
2021/05/26 11:44:44;;;;;;;7.63;2.20;;;12.10;99.90;;;;;;5028259;28;20076;-64
2021/05/26 11:47:10;;;;;;;3.90;1.88;;;12.20;99.90;;;;;;5028831;28;20025;-64
2021/05/26 11:49:40;;;;;;;4.95;2.35;;;12.00;99.90;;;;;;5029984;28;20099;-65
2021/05/26 11:52:11;;;;;;;5.18;2.40;;;12.00;99.90;;;;;;5034110;28;20040;-65
2021/05/26 11:54:57;;;;;;;2.35;1.77;;;12.10;99.90;;;;;;5032206;28;20487;-65
2021/05/26 11:57:40;;;;;;;3.10;1.40;;;12.20;99.90;;;;;;5034041;28;20031;-65
2021/05/26 12:00:30;;;;;;;3.05;1.58;;;12.10;99.90;;;;;;5033528;28;20029;-65
2021/05/26 12:03:08;;;;;;;5.22;1.40;;;12.10;99.90;;;;;;5041999;28;20025;-65
2021/05/26 12:05:40;;;;;;;2.83;2.13;;;12.10;99.90;;;;;;5029517;28;20136;-65
2021/05/26 12:08:18;;;;;;;3.90;1.85;;;12.10;99.90;;;;;;5031520;28;20483;-64
2021/05/26 12:10:52;;;;;;;2.95;1.45;;;12.20;99.90;;;;;;5030274;28;20045;-67
2021/05/26 12:13:28;;;;;;;1.25;1.10;;;12.20;99.90;;;;;;5032804;28;20037;-64
2021/05/26 12:15:58;;;;;;;5.05;1.25;;;12.30;99.90;;;;;;5030614;28;20037;-65
2021/05/26 12:18:24;;;;;;;3.40;1.48;;;12.30;99.90;;;;;;5029676;28;20104;-64
2021/05/26 12:20:51;;;;;;;2.17;1.50;;;12.40;99.90;;;;;;5030526;28;20408;-63
2021/05/26 12:23:40;;;;;;;1.83;1.38;;;12.60;99.90;;;;;;5033626;28;20034;-66
2021/05/26 12:26:26;;;;;;;3.40;1.30;;;12.80;99.90;;;;;;5034525;28;20033;-66
2021/05/26 12:28:54;;;;;;;4.22;1.38;;;12.80;99.90;;;;;;5032969;28;20056;-62
2021/05/26 12:31:20;;;;;;;3.85;1.10;;;12.60;99.90;;;;;;5032183;28;20022;-65
2021/05/26 12:33:51;;;;;;;4.95;1.25;;;12.50;99.90;;;;;;5024621;28;20124;-63
2021/05/26 12:36:17;;;;;;;4.68;1.63;;;12.60;99.90;;;;;;5029617;28;20037;-65
2021/05/26 12:38:45;;;;;;;1.85;1.33;;;12.90;99.90;;;;;;5030669;28;20033;-65
2021/05/26 12:41:22;;;;;;;1.50;1.13;;;13.30;99.90;;;;;;5029275;28;20045;-65
2021/05/26 12:43:48;;;;;;;2.08;1.25;;;13.50;99.90;;;;;;5035837;28;20033;-66
2021/05/26 12:46:54;;;;;;;1.58;1.17;;;13.60;99.90;;;;;;5032978;28;20129;-62
2021/05/26 12:49:41;;;;;;;1.75;1.50;;;13.60;99.90;;;;;;4975681;28;20488;-65